Time;durP1;ratioP1;P1;durP2;ratioP2;P2;SDS_P1;SDS_P2;PMS_P1;PMS_P2;Temp;Humidity;BMP_temperature;BMP_pressure;BME280_temperature;BME280_humidity;BME280_pressure;Samples;Min_cycle;Max_cycle;Signal;HPM_P1;HPM_P2
2022/03/27 00:00:42;;;;;;;22.37;13.90;;;15.90;34.00;;;;;;5041300;28;20445;-45
2022/03/27 00:03:07;;;;;;;19.23;12.77;;;15.90;33.80;;;;;;5048428;28;20439;-47
2022/03/27 00:05:33;;;;;;;20.70;12.40;;;15.90;33.90;;;;;;5045239;28;20197;-44
2022/03/27 00:07:59;;;;;;;21.27;13.63;;;15.80;33.90;;;;;;5046897;28;20679;-43
2022/03/27 00:10:25;;;;;;;19.60;12.27;;;15.80;34.30;;;;;;5046094;28;21275;-44
2022/03/27 00:12:51;;;;;;;19.33;12.77;;;15.70;35.00;;;;;;5042969;28;20447;-45
2022/03/27 00:15:17;;;;;;;18.43;12.90;;;15.80;34.40;;;;;;5044044;28;20492;-43
2022/03/27 00:17:43;;;;;;;19.87;13.23;;;15.70;34.40;;;;;;5040109;28;20193;-44
2022/03/27 00:20:09;;;;;;;17.53;12.50;;;15.70;34.40;;;;;;5040844;28;20435;-44
2022/03/27 00:22:36;;;;;;;21.53;13.83;;;15.70;34.40;;;;;;5039316;28;20193;-44
2022/03/27 00:25:04;;;;;;;19.40;13.20;;;15.70;34.40;;;;;;5047153;28;20471;-43
2022/03/27 00:27:31;;;;;;;25.00;12.57;;;15.60;34.40;;;;;;5043903;28;20474;-44
2022/03/27 00:29:56;;;;;;;21.60;12.60;;;15.60;34.70;;;;;;5047158;28;20492;-45
2022/03/27 00:32:23;;;;;;;22.20;13.20;;;15.50;34.60;;;;;;5054265;28;20435;-44
2022/03/27 00:34:48;;;;;;;21.80;12.67;;;15.50;34.60;;;;;;5046619;28;20219;-44
2022/03/27 00:37:14;;;;;;;17.53;12.10;;;15.50;34.70;;;;;;5043014;28;20466;-44
2022/03/27 00:39:39;;;;;;;18.87;12.90;;;15.50;34.90;;;;;;5049640;28;20795;-44
2022/03/27 00:42:05;;;;;;;17.50;11.90;;;15.40;35.20;;;;;;5050127;28;20200;-43
2022/03/27 00:44:31;;;;;;;21.20;12.67;;;15.40;35.10;;;;;;5047727;28;20207;-43
2022/03/27 00:46:58;;;;;;;20.83;13.60;;;15.50;35.10;;;;;;5052568;28;21185;-44
2022/03/27 00:49:23;;;;;;;20.50;12.90;;;15.50;34.90;;;;;;5052396;28;20200;-43
2022/03/27 00:51:49;;;;;;;16.77;12.70;;;15.40;34.90;;;;;;5052917;28;20433;-44
2022/03/27 00:54:14;;;;;;;18.30;11.50;;;15.20;35.20;;;;;;5049654;28;20322;-44
2022/03/27 00:56:40;;;;;;;19.53;13.37;;;15.00;35.80;;;;;;5051374;28;20587;-43
2022/03/27 00:59:06;;;;;;;22.10;12.73;;;15.00;36.00;;;;;;5052809;28;20192;-43
2022/03/27 01:01:37;;;;;;;25.00;13.30;;;15.00;35.80;;;;;;5049744;28;20272;-43
2022/03/27 01:04:05;;;;;;;15.43;11.23;;;14.90;36.10;;;;;;5049639;28;20199;-44
2022/03/27 01:06:41;;;;;;;24.50;12.17;;;14.90;36.00;;;;;;5048220;28;20498;-44
2022/03/27 01:11:54;;;;;;;22.10;14.83;;;15.00;36.50;;;;;;5046864;28;20451;-43
2022/03/27 01:14:31;;;;;;;20.10;14.70;;;15.00;35.60;;;;;;5045611;28;20515;-45
2022/03/27 01:17:07;;;;;;;22.63;14.20;;;15.00;35.60;;;;;;5045938;28;22452;-43
2022/03/27 01:19:54;;;;;;;19.83;13.63;;;15.00;35.60;;;;;;5042850;28;20434;-45
2022/03/27 01:22:20;;;;;;;18.67;13.40;;;14.90;35.80;;;;;;5048053;28;20443;-44
2022/03/27 01:24:47;;;;;;;18.93;14.03;;;14.80;36.40;;;;;;5046514;28;20474;-43
2022/03/27 01:27:13;;;;;;;23.33;15.27;;;14.60;36.10;;;;;;5046619;28;20526;-44
2022/03/27 01:29:39;;;;;;;22.70;14.30;;;14.40;36.50;;;;;;5049865;28;20518;-45
2022/03/27 01:32:07;;;;;;;22.30;13.60;;;14.20;37.00;;;;;;5047352;28;20196;-46
2022/03/27 01:34:34;;;;;;;17.90;13.27;;;14.00;37.30;;;;;;5045036;28;20949;-44
2022/03/27 01:37:08;;;;;;;18.00;11.80;;;13.90;37.50;;;;;;5044225;28;20487;-43
2022/03/27 01:39:34;;;;;;;23.53;13.03;;;13.80;37.50;;;;;;5047104;28;20534;-45
2022/03/27 01:42:00;;;;;;;19.17;13.10;;;13.80;37.60;;;;;;5043053;28;20439;-44
2022/03/27 01:44:26;;;;;;;19.63;13.10;;;13.70;37.80;;;;;;5041240;28;20794;-44
2022/03/27 01:46:52;;;;;;;26.80;14.33;;;13.60;38.00;;;;;;5045521;28;20202;-43
2022/03/27 01:49:19;;;;;;;21.93;12.67;;;13.40;38.40;;;;;;5047294;28;20201;-44
2022/03/27 01:51:46;;;;;;;18.97;12.10;;;13.30;38.50;;;;;;5043971;28;20526;-43
2022/03/27 01:54:12;;;;;;;22.63;13.27;;;13.30;38.60;;;;;;5058434;28;20472;-43
2022/03/27 01:56:38;;;;;;;20.23;12.63;;;13.30;38.70;;;;;;5049956;28;20486;-44
2022/03/27 01:59:05;;;;;;;23.33;12.90;;;13.30;38.70;;;;;;5045464;28;20435;-45
2022/03/27 02:01:32;;;;;;;21.13;12.33;;;13.20;38.80;;;;;;5044874;28;20439;-43
2022/03/27 02:03:57;;;;;;;27.00;13.83;;;13.20;38.90;;;;;;5048480;28;20459;-44
2022/03/27 02:06:23;;;;;;;18.37;12.57;;;13.20;39.00;;;;;;5045763;28;20450;-43
2022/03/27 02:08:50;;;;;;;19.97;11.87;;;13.10;39.00;;;;;;5045136;28;20193;-44
2022/03/27 02:11:15;;;;;;;20.00;12.10;;;13.00;39.20;;;;;;5062342;28;20439;-44
2022/03/27 02:13:42;;;;;;;17.23;11.27;;;12.80;39.70;;;;;;5032647;28;20493;-45
2022/03/27 02:16:07;;;;;;;26.00;12.50;;;12.70;40.00;;;;;;5044368;28;20700;-44
2022/03/27 02:18:33;;;;;;;22.67;13.57;;;12.60;40.30;;;;;;5047947;28;20459;-44
2022/03/27 02:21:00;;;;;;;21.07;13.57;;;12.50;40.30;;;;;;5042202;28;20188;-45
2022/03/27 02:23:26;;;;;;;16.20;11.43;;;12.50;40.50;;;;;;5044737;28;20259;-45
2022/03/27 02:25:53;;;;;;;17.67;11.73;;;12.50;40.50;;;;;;5048507;28;20466;-44
2022/03/27 02:28:19;;;;;;;21.33;12.60;;;12.40;40.50;;;;;;5045813;28;20443;-43
2022/03/27 02:30:46;;;;;;;18.43;12.70;;;12.40;40.70;;;;;;5046557;28;20510;-44
2022/03/27 02:33:11;;;;;;;19.60;12.10;;;12.30;40.90;;;;;;5048794;28;20447;-43
2022/03/27 02:35:37;;;;;;;19.37;13.00;;;12.20;41.10;;;;;;5048125;28;20498;-43
2022/03/27 02:38:05;;;;;;;19.40;12.17;;;12.10;41.90;;;;;;5043668;28;20189;-43
2022/03/27 02:40:31;;;;;;;17.80;13.80;;;12.10;41.50;;;;;;5044569;28;20946;-44
2022/03/27 02:42:59;;;;;;;20.23;13.13;;;12.00;41.70;;;;;;5050346;28;20442;-47
2022/03/27 02:45:26;;;;;;;17.80;12.80;;;12.00;41.70;;;;;;5043442;28;20596;-43
2022/03/27 02:47:52;;;;;;;24.17;13.67;;;12.00;41.70;;;;;;5044268;28;20524;-44
2022/03/27 02:50:17;;;;;;;20.87;13.87;;;11.80;42.10;;;;;;5042548;28;20528;-43
2022/03/27 02:52:43;;;;;;;23.47;12.90;;;11.90;42.10;;;;;;5047495;28;20451;-43
2022/03/27 02:55:09;;;;;;;20.10;13.67;;;11.90;41.90;;;;;;5048870;28;20203;-44
2022/03/27 02:57:34;;;;;;;22.60;12.53;;;11.90;41.70;;;;;;5052564;28;20255;-44
2022/03/27 03:00:00;;;;;;;20.37;13.73;;;11.90;41.90;;;;;;5049370;28;20196;-44
2022/03/27 03:02:26;;;;;;;17.50;12.53;;;11.80;42.00;;;;;;5045740;28;20200;-44
2022/03/27 03:04:52;;;;;;;19.87;13.80;;;11.80;42.10;;;;;;5044288;28;20238;-44
2022/03/27 03:07:18;;;;;;;22.27;13.60;;;11.80;42.10;;;;;;5050528;28;20196;-43
2022/03/27 03:09:44;;;;;;;18.60;12.63;;;11.80;41.90;;;;;;5041032;28;20848;-44
2022/03/27 03:12:10;;;;;;;19.50;12.13;;;11.80;41.90;;;;;;5046409;28;20476;-43
2022/03/27 03:14:36;;;;;;;21.53;13.00;;;11.80;42.00;;;;;;5042126;28;20443;-46
2022/03/27 03:17:04;;;;;;;22.50;13.73;;;11.70;42.00;;;;;;5041999;28;20493;-44
2022/03/27 03:19:30;;;;;;;20.33;14.17;;;11.60;42.20;;;;;;5039373;28;20269;-43
2022/03/27 03:21:55;;;;;;;21.60;12.63;;;11.60;42.50;;;;;;5041884;28;20466;-44
2022/03/27 03:24:23;;;;;;;22.67;13.70;;;11.60;42.40;;;;;;5047833;28;20467;-46
2022/03/27 03:26:49;;;;;;;17.23;11.90;;;11.60;42.40;;;;;;5042500;28;20208;-44
2022/03/27 03:29:15;;;;;;;17.67;12.57;;;11.60;42.30;;;;;;5045787;28;20442;-43
2022/03/27 03:31:40;;;;;;;22.30;13.40;;;11.70;42.20;;;;;;5048767;28;20562;-45
2022/03/27 03:34:06;;;;;;;22.30;13.50;;;11.70;42.00;;;;;;5049208;28;20235;-45
2022/03/27 03:36:31;;;;;;;18.83;12.83;;;11.60;42.00;;;;;;5048913;28;20221;-45
2022/03/27 03:38:57;;;;;;;19.97;11.87;;;11.40;42.30;;;;;;5040917;28;20196;-44
2022/03/27 03:41:23;;;;;;;22.97;14.40;;;11.40;42.80;;;;;;5036492;28;20903;-46
2022/03/27 03:43:49;;;;;;;18.43;12.50;;;11.20;43.10;;;;;;5022251;28;20193;-44
2022/03/27 03:46:14;;;;;;;17.77;12.50;;;11.20;43.20;;;;;;5046435;28;21416;-44
2022/03/27 03:48:40;;;;;;;20.40;11.83;;;11.20;43.20;;;;;;5042887;28;20263;-43
2022/03/27 03:51:06;;;;;;;18.43;13.83;;;11.20;43.20;;;;;;5045260;28;20813;-45
2022/03/27 03:53:32;;;;;;;20.63;12.97;;;11.20;43.20;;;;;;5041305;28;20185;-44
2022/03/27 03:55:58;;;;;;;21.77;13.03;;;11.30;43.00;;;;;;5045225;28;20621;-44
2022/03/27 03:58:23;;;;;;;16.60;11.50;;;11.30;43.00;;;;;;5046968;28;20615;-45
2022/03/27 04:00:50;;;;;;;16.93;12.40;;;11.30;42.90;;;;;;5045776;28;20199;-44
2022/03/27 04:03:16;;;;;;;16.73;12.80;;;11.20;42.90;;;;;;5045668;28;20707;-44
2022/03/27 04:05:42;;;;;;;18.27;12.63;;;11.20;42.90;;;;;;5044793;28;20434;-43
2022/03/27 04:08:08;;;;;;;19.63;12.27;;;11.20;42.90;;;;;;5040106;28;20438;-44
2022/03/27 04:10:34;;;;;;;23.47;13.73;;;11.10;43.20;;;;;;5044866;28;20451;-43
2022/03/27 04:12:59;;;;;;;20.57;12.70;;;11.00;43.40;;;;;;5048305;28;20184;-45
2022/03/27 04:15:25;;;;;;;19.73;13.33;;;11.00;43.40;;;;;;5040222;28;20577;-44
2022/03/27 04:17:51;;;;;;;24.27;13.00;;;11.00;43.40;;;;;;5042836;28;20775;-44
2022/03/27 04:20:17;;;;;;;22.10;13.33;;;10.90;43.50;;;;;;5047510;28;20322;-44
2022/03/27 04:22:45;;;;;;;20.57;12.60;;;10.90;43.60;;;;;;5048783;28;20946;-43
2022/03/27 04:25:12;;;;;;;25.73;13.77;;;10.90;43.80;;;;;;5041922;28;21001;-44
2022/03/27 04:27:39;;;;;;;21.60;12.07;;;10.80;44.00;;;;;;5049384;28;20607;-43
2022/03/27 04:30:09;;;;;;;21.30;12.80;;;10.80;43.90;;;;;;5049547;28;21001;-45
2022/03/27 04:32:35;;;;;;;19.27;12.73;;;10.80;43.80;;;;;;5045723;28;20471;-43
2022/03/27 04:35:01;;;;;;;20.63;11.87;;;10.80;43.90;;;;;;5043007;28;20547;-44
2022/03/27 04:37:27;;;;;;;23.27;12.30;;;10.80;43.90;;;;;;5043616;28;20922;-44
2022/03/27 04:39:52;;;;;;;17.57;11.37;;;10.80;43.80;;;;;;5037275;28;20446;-44
2022/03/27 04:42:18;;;;;;;23.73;13.00;;;10.80;43.60;;;;;;5041145;28;20648;-44
2022/03/27 04:44:43;;;;;;;25.33;13.03;;;10.80;43.80;;;;;;5046237;28;20612;-43
2022/03/27 04:47:09;;;;;;;23.60;12.73;;;10.80;44.00;;;;;;5043098;28;20612;-44
2022/03/27 04:49:35;;;;;;;18.30;12.00;;;10.80;44.00;;;;;;5038544;28;20201;-43
2022/03/27 04:52:00;;;;;;;17.93;12.10;;;10.70;43.80;;;;;;5041291;28;20212;-45
2022/03/27 04:54:26;;;;;;;19.90;12.60;;;10.40;44.50;;;;;;5055500;28;20245;-46
2022/03/27 04:56:51;;;;;;;17.67;11.70;;;10.40;44.40;;;;;;5040911;28;20242;-48
2022/03/27 04:59:17;;;;;;;19.40;12.40;;;10.50;44.20;;;;;;5044666;28;20188;-44
2022/03/27 05:01:42;;;;;;;18.60;12.00;;;10.50;44.40;;;;;;5041571;28;20540;-45
2022/03/27 05:04:09;;;;;;;21.50;11.80;;;10.40;44.10;;;;;;5036821;28;20197;-44
2022/03/27 05:06:34;;;;;;;21.67;12.47;;;10.40;44.20;;;;;;5043698;28;20676;-45
2022/03/27 05:09:00;;;;;;;18.50;11.47;;;10.40;44.20;;;;;;5047629;28;20478;-49
2022/03/27 05:11:28;;;;;;;24.47;12.53;;;10.40;44.40;;;;;;5044607;28;20263;-45
2022/03/27 05:13:54;;;;;;;18.47;11.00;;;10.40;44.40;;;;;;5038677;28;20197;-45
2022/03/27 05:16:20;;;;;;;19.03;11.07;;;10.40;44.50;;;;;;5042193;28;20489;-46
2022/03/27 05:18:45;;;;;;;19.20;12.00;;;10.40;44.50;;;;;;5044019;28;20435;-46
2022/03/27 05:21:11;;;;;;;20.30;11.53;;;10.40;44.40;;;;;;5045046;28;20205;-43
2022/03/27 05:23:37;;;;;;;14.70;11.03;;;10.40;44.20;;;;;;5045290;28;20232;-46
2022/03/27 05:26:03;;;;;;;16.60;11.43;;;10.40;44.10;;;;;;5049861;28;20196;-44
2022/03/27 05:28:29;;;;;;;19.17;12.10;;;10.30;44.10;;;;;;5045272;28;20203;-44
2022/03/27 05:30:55;;;;;;;23.97;12.40;;;10.30;44.30;;;;;;5046784;28;20926;-44
2022/03/27 05:33:20;;;;;;;17.43;11.37;;;10.30;44.40;;;;;;5049278;28;20246;-46
2022/03/27 05:35:46;;;;;;;24.03;12.43;;;10.30;44.40;;;;;;5046739;28;21360;-44
2022/03/27 05:38:12;;;;;;;19.50;12.20;;;10.30;44.60;;;;;;5047484;28;20200;-44
2022/03/27 05:40:38;;;;;;;18.20;12.60;;;10.30;44.60;;;;;;5046222;28;20204;-46
2022/03/27 05:43:05;;;;;;;22.40;12.30;;;10.30;44.70;;;;;;5050200;28;20195;-43
2022/03/27 05:45:31;;;;;;;24.63;12.97;;;10.40;44.90;;;;;;5044394;28;20447;-45
2022/03/27 05:47:56;;;;;;;17.93;11.30;;;10.50;44.90;;;;;;5045231;28;20443;-44
2022/03/27 05:50:23;;;;;;;19.30;11.50;;;10.60;45.10;;;;;;5047591;28;20443;-43
2022/03/27 05:52:51;;;;;;;16.03;10.90;;;10.70;45.20;;;;;;5049703;28;20200;-44
2022/03/27 05:55:17;;;;;;;17.83;11.83;;;10.80;45.60;;;;;;5041705;28;20433;-43
2022/03/27 05:57:43;;;;;;;21.03;12.13;;;11.00;45.60;;;;;;5042268;28;20808;-43
2022/03/27 06:00:12;;;;;;;20.33;13.93;;;11.10;45.20;;;;;;5046982;28;20587;-44
2022/03/27 06:02:38;;;;;;;17.00;11.63;;;11.30;44.30;;;;;;5051501;28;20453;-43
2022/03/27 06:05:04;;;;;;;19.30;11.80;;;11.50;43.90;;;;;;5036606;28;20795;-43
2022/03/27 06:07:30;;;;;;;24.13;12.70;;;11.60;43.50;;;;;;5044383;28;20466;-43
2022/03/27 06:09:56;;;;;;;23.20;13.03;;;11.70;43.00;;;;;;5044183;28;20443;-44
2022/03/27 06:12:21;;;;;;;15.03;11.57;;;11.80;42.40;;;;;;5046800;28;20197;-43
2022/03/27 06:14:48;;;;;;;22.47;12.77;;;11.80;42.00;;;;;;5045564;28;20200;-43
2022/03/27 06:17:14;;;;;;;21.73;11.67;;;11.90;42.10;;;;;;5046543;28;20597;-46
2022/03/27 06:19:39;;;;;;;25.70;12.17;;;12.00;42.10;;;;;;5049879;28;20427;-45
2022/03/27 06:22:05;;;;;;;23.10;13.20;;;12.10;42.10;;;;;;5050203;28;20208;-43
2022/03/27 06:24:30;;;;;;;21.47;14.83;;;12.20;41.80;;;;;;5049954;28;20240;-43
2022/03/27 06:26:56;;;;;;;20.20;12.07;;;12.40;41.70;;;;;;5047841;28;21750;-47
2022/03/27 06:29:21;;;;;;;17.40;11.40;;;12.50;41.50;;;;;;5049734;28;20271;-45
2022/03/27 06:31:49;;;;;;;19.73;12.23;;;12.60;41.40;;;;;;5050110;28;20204;-46
2022/03/27 06:34:15;;;;;;;17.50;12.27;;;12.70;41.40;;;;;;5050539;28;20211;-48
2022/03/27 06:36:42;;;;;;;20.90;12.93;;;12.70;41.30;;;;;;5048611;28;20483;-43
2022/03/27 06:39:08;;;;;;;17.73;12.10;;;12.80;41.60;;;;;;5050290;28;20446;-44
2022/03/27 06:41:34;;;;;;;16.97;12.40;;;13.00;41.30;;;;;;5050914;28;20493;-44
2022/03/27 06:43:59;;;;;;;15.20;9.47;;;13.10;41.20;;;;;;5049234;28;20450;-47
2022/03/27 06:46:25;;;;;;;17.83;10.93;;;13.10;42.00;;;;;;5040882;28;20423;-44
2022/03/27 06:48:51;;;;;;;20.03;11.17;;;13.40;41.40;;;;;;5048056;28;20250;-45
2022/03/27 06:51:17;;;;;;;20.07;11.50;;;13.80;40.20;;;;;;5048229;28;20882;-44
2022/03/27 06:53:43;;;;;;;17.73;11.63;;;14.20;39.30;;;;;;5048725;28;20193;-44
2022/03/27 06:56:09;;;;;;;19.27;12.70;;;14.60;38.50;;;;;;5048677;28;20513;-47
2022/03/27 06:58:35;;;;;;;16.83;11.93;;;14.80;37.80;;;;;;5050221;28;20431;-45
2022/03/27 07:03:45;;;;;;;19.83;12.90;;;15.30;37.00;;;;;;5049318;28;20230;-46
2022/03/27 07:06:13;;;;;;;18.90;12.50;;;15.60;36.70;;;;;;5050100;28;20520;-48
2022/03/27 07:08:38;;;;;;;17.90;12.63;;;15.80;37.10;;;;;;5050156;28;20196;-45
2022/03/27 07:11:04;;;;;;;15.10;11.90;;;16.10;36.50;;;;;;5048648;28;20439;-47
2022/03/27 07:13:34;;;;;;;20.93;12.63;;;16.30;36.40;;;;;;5050087;28;20197;-47
2022/03/27 07:15:59;;;;;;;16.67;12.10;;;16.50;36.40;;;;;;5049355;28;20331;-47
2022/03/27 07:18:25;;;;;;;21.57;13.67;;;16.60;36.70;;;;;;5047746;28;20534;-43
2022/03/27 07:20:51;;;;;;;19.37;12.30;;;16.80;35.90;;;;;;5040233;28;20196;-44
2022/03/27 07:23:21;;;;;;;20.43;13.13;;;17.00;35.70;;;;;;5048869;28;20704;-44
2022/03/27 07:25:48;;;;;;;19.57;13.37;;;17.20;35.60;;;;;;5042574;28;20213;-44
2022/03/27 07:28:15;;;;;;;16.73;13.23;;;17.30;35.40;;;;;;5043349;28;21222;-45
2022/03/27 07:30:42;;;;;;;21.87;14.70;;;17.50;35.20;;;;;;5036186;28;20976;-45
2022/03/27 07:33:08;;;;;;;23.73;13.30;;;17.60;35.10;;;;;;5043479;28;20482;-43
2022/03/27 07:35:34;;;;;;;21.67;14.57;;;17.50;35.20;;;;;;5047263;28;21037;-44
2022/03/27 07:38:01;;;;;;;18.70;13.60;;;17.60;35.20;;;;;;5047876;28;20598;-44
2022/03/27 07:40:28;;;;;;;22.50;15.27;;;17.70;34.90;;;;;;5044907;28;20193;-46
2022/03/27 07:42:54;;;;;;;22.70;14.97;;;17.80;34.90;;;;;;5048742;28;20435;-46
2022/03/27 07:45:28;;;;;;;19.93;14.00;;;18.00;34.60;;;;;;5039372;28;20507;-44
2022/03/27 07:47:55;;;;;;;21.37;14.13;;;18.10;34.50;;;;;;5050014;28;20430;-45
2022/03/27 07:50:23;;;;;;;24.40;15.37;;;18.30;34.30;;;;;;5049538;28;20428;-46
2022/03/27 07:52:49;;;;;;;20.23;15.07;;;18.40;34.20;;;;;;5041104;28;21015;-48
2022/03/27 07:55:16;;;;;;;23.43;14.17;;;18.50;34.00;;;;;;5061300;28;20439;-47
2022/03/27 07:57:42;;;;;;;23.30;15.40;;;18.60;33.80;;;;;;5031772;28;20459;-45
2022/03/27 08:00:10;;;;;;;23.10;14.43;;;18.70;33.80;;;;;;5049174;28;21130;-45
2022/03/27 08:02:37;;;;;;;23.20;14.67;;;18.80;33.70;;;;;;5049510;28;20469;-44
2022/03/27 08:05:04;;;;;;;21.27;13.67;;;18.90;33.70;;;;;;5048623;28;20781;-44
2022/03/27 08:07:32;;;;;;;18.97;13.70;;;19.00;33.80;;;;;;5049733;28;20491;-44
2022/03/27 08:09:58;;;;;;;23.43;14.40;;;19.10;33.90;;;;;;5048692;28;20538;-44
2022/03/27 08:12:24;;;;;;;16.30;13.80;;;19.10;33.80;;;;;;5049297;28;20525;-45
2022/03/27 08:14:49;;;;;;;20.50;13.87;;;19.20;33.90;;;;;;5048850;28;20505;-43
2022/03/27 08:17:19;;;;;;;16.83;13.80;;;19.30;33.90;;;;;;5049589;28;20236;-45
2022/03/27 08:19:46;;;;;;;19.47;13.70;;;19.40;34.50;;;;;;5047325;28;20265;-44
2022/03/27 08:22:12;;;;;;;19.97;14.73;;;19.40;33.50;;;;;;5048293;28;20489;-45
2022/03/27 08:24:38;;;;;;;19.93;14.03;;;19.50;33.40;;;;;;5047534;28;20538;-44
2022/03/27 08:27:04;;;;;;;20.93;13.83;;;19.40;33.20;;;;;;5049824;28;20192;-46
2022/03/27 08:29:35;;;;;;;16.40;13.27;;;19.50;33.60;;;;;;5049059;28;20196;-45
2022/03/27 08:32:04;;;;;;;19.00;13.30;;;19.60;34.00;;;;;;5049076;28;20439;-44
2022/03/27 08:34:33;;;;;;;17.60;13.17;;;19.60;34.20;;;;;;5047715;28;20427;-44
2022/03/27 08:37:01;;;;;;;20.03;13.00;;;19.60;34.20;;;;;;5049538;28;20490;-44
2022/03/27 08:39:27;;;;;;;18.83;13.33;;;19.70;34.70;;;;;;5049067;28;20489;-45
2022/03/27 08:41:54;;;;;;;24.07;12.40;;;19.80;34.40;;;;;;5048547;28;20435;-45
2022/03/27 08:44:21;;;;;;;19.80;12.83;;;19.90;34.80;;;;;;5048232;28;20439;-47
2022/03/27 08:46:48;;;;;;;24.13;13.67;;;19.90;35.30;;;;;;5048897;28;20443;-44
2022/03/27 08:49:26;;;;;;;17.57;14.27;;;20.10;35.30;;;;;;5047013;28;20518;-44
2022/03/27 08:52:09;;;;;;;21.87;13.87;;;20.20;34.40;;;;;;5051612;28;20439;-46
2022/03/27 08:54:43;;;;;;;19.30;13.30;;;20.10;34.40;;;;;;5045843;28;20447;-48
2022/03/27 08:57:17;;;;;;;17.43;12.90;;;20.20;34.60;;;;;;5052258;28;20969;-46
2022/03/27 08:59:44;;;;;;;15.27;13.50;;;20.40;34.50;;;;;;5052729;28;21019;-44
2022/03/27 09:02:13;;;;;;;18.40;12.50;;;20.10;34.80;;;;;;5040202;28;20796;-45
2022/03/27 09:04:40;;;;;;;17.73;12.30;;;20.20;34.60;;;;;;5049742;28;20806;-45
2022/03/27 09:07:06;;;;;;;15.90;13.17;;;20.30;34.30;;;;;;5052727;28;20431;-47
2022/03/27 09:09:34;;;;;;;19.27;12.90;;;20.30;33.90;;;;;;5052451;28;20438;-46
2022/03/27 09:12:04;;;;;;;18.30;13.60;;;20.40;33.50;;;;;;5051440;28;21168;-46
2022/03/27 09:14:34;;;;;;;14.80;12.07;;;20.60;33.50;;;;;;5049417;28;20438;-45
2022/03/27 09:17:05;;;;;;;18.37;13.30;;;20.60;33.70;;;;;;5043885;28;20543;-47
2022/03/27 09:19:36;;;;;;;18.63;13.87;;;20.70;33.60;;;;;;5048181;28;20439;-47
2022/03/27 09:22:19;;;;;;;17.00;12.23;;;21.00;33.00;;;;;;5046935;28;21265;-45
2022/03/27 09:25:05;;;;;;;17.60;13.40;;;21.10;33.10;;;;;;5050274;28;20529;-47
2022/03/27 09:27:34;;;;;;;16.27;13.47;;;21.30;32.90;;;;;;5050004;28;20959;-45
2022/03/27 09:30:06;;;;;;;17.23;13.10;;;21.60;33.20;;;;;;5048118;28;20439;-44
2022/03/27 09:32:40;;;;;;;16.90;12.60;;;21.50;32.80;;;;;;5049149;28;20438;-45
2022/03/27 09:35:11;;;;;;;14.90;12.97;;;21.60;33.10;;;;;;5048620;28;20454;-45
2022/03/27 09:37:39;;;;;;;19.00;13.77;;;21.80;33.30;;;;;;5046214;28;20485;-46
2022/03/27 09:40:06;;;;;;;16.97;12.50;;;22.00;32.20;;;;;;5047792;28;20427;-46
2022/03/27 09:42:32;;;;;;;20.07;13.73;;;21.70;32.20;;;;;;5048725;28;20922;-44
2022/03/27 09:45:17;;;;;;;32.20;15.17;;;21.70;32.90;;;;;;5045087;28;20435;-47
2022/03/27 09:47:48;;;;;;;20.33;11.87;;;22.10;34.10;;;;;;5048832;28;20223;-47
2022/03/27 09:50:32;;;;;;;16.07;12.67;;;22.40;33.00;;;;;;5046408;28;20447;-46
2022/03/27 09:53:17;;;;;;;17.90;14.20;;;22.70;31.70;;;;;;5046686;28;20754;-44
2022/03/27 09:55:42;;;;;;;16.03;12.77;;;22.70;31.90;;;;;;5036435;28;20474;-45
2022/03/27 09:58:09;;;;;;;18.33;12.33;;;22.80;31.50;;;;;;5047692;28;20797;-46
2022/03/27 10:00:35;;;;;;;18.70;13.73;;;23.00;31.30;;;;;;5048367;28;20192;-45
2022/03/27 10:03:09;;;;;;;17.53;13.47;;;23.20;31.20;;;;;;5048783;28;20835;-46
2022/03/27 10:05:35;;;;;;;18.70;13.20;;;23.30;31.20;;;;;;5045885;28;20451;-47
2022/03/27 10:08:01;;;;;;;20.37;13.20;;;23.30;30.80;;;;;;5050428;28;20738;-47
2022/03/27 10:10:28;;;;;;;15.40;12.70;;;23.40;31.10;;;;;;5049175;28;20200;-46
2022/03/27 10:12:56;;;;;;;16.03;12.50;;;23.70;31.30;;;;;;5048283;28;20906;-50
2022/03/27 10:15:30;;;;;;;20.43;12.63;;;24.00;31.30;;;;;;5049993;28;20530;-44
2022/03/27 10:17:58;;;;;;;13.33;11.20;;;24.10;30.60;;;;;;5048963;28;20435;-47
2022/03/27 10:20:28;;;;;;;15.87;12.30;;;24.20;30.90;;;;;;5050675;28;20445;-50
2022/03/27 10:23:20;;;;;;;18.90;12.80;;;24.30;31.20;;;;;;5050587;28;20451;-49
2022/03/27 10:25:50;;;;;;;14.63;12.27;;;24.60;30.70;;;;;;5038942;28;20443;-46
2022/03/27 10:28:18;;;;;;;14.90;12.97;;;24.80;29.90;;;;;;5048911;28;20554;-46
2022/03/27 10:30:45;;;;;;;17.57;12.63;;;25.00;30.50;;;;;;5049053;28;20793;-48
2022/03/27 10:33:11;;;;;;;18.93;12.70;;;25.20;30.00;;;;;;5044706;28;20470;-49
2022/03/27 10:35:52;;;;;;;15.20;12.17;;;25.40;29.60;;;;;;5046850;28;21032;-46
2022/03/27 10:38:23;;;;;;;19.40;12.70;;;25.70;29.20;;;;;;5038202;28;21237;-46
2022/03/27 10:41:11;;;;;;;16.60;13.10;;;25.70;28.10;;;;;;5044647;28;20461;-43
2022/03/27 10:44:10;;;;;;;17.10;12.43;;;25.90;28.00;;;;;;5046462;28;20450;-44
2022/03/27 10:46:37;;;;;;;15.40;11.67;;;25.80;27.20;;;;;;5049857;28;20437;-46
2022/03/27 10:49:16;;;;;;;19.07;12.23;;;25.80;27.80;;;;;;5049199;28;20513;-44
2022/03/27 10:51:44;;;;;;;14.20;11.20;;;25.90;27.80;;;;;;5045390;28;20429;-44
2022/03/27 10:54:15;;;;;;;20.40;12.57;;;26.20;27.90;;;;;;5048846;28;20431;-45
2022/03/27 10:56:45;;;;;;;16.90;12.40;;;26.40;27.50;;;;;;5050517;28;20485;-44
2022/03/27 10:59:20;;;;;;;15.17;11.27;;;26.60;28.20;;;;;;5050267;28;20996;-45
2022/03/27 11:01:50;;;;;;;14.37;11.60;;;26.90;26.90;;;;;;5050916;28;20446;-44
2022/03/27 11:04:41;;;;;;;25.90;14.20;;;26.90;26.50;;;;;;5049739;28;20474;-44
2022/03/27 11:07:32;;;;;;;14.77;13.00;;;26.80;26.50;;;;;;5041163;28;20458;-45
2022/03/27 11:09:58;;;;;;;19.93;12.80;;;26.60;26.60;;;;;;5042934;28;20482;-44
2022/03/27 11:12:33;;;;;;;12.50;11.20;;;26.70;26.90;;;;;;5049121;28;20865;-44
2022/03/27 11:15:05;;;;;;;16.83;12.30;;;26.80;26.90;;;;;;5048125;28;20196;-44
2022/03/27 11:17:37;;;;;;;16.93;10.97;;;26.80;25.80;;;;;;5050618;28;20486;-44
2022/03/27 11:20:25;;;;;;;13.60;10.60;;;26.90;24.40;;;;;;5049770;28;20442;-45
2022/03/27 11:22:54;;;;;;;14.90;9.93;;;26.80;23.70;;;;;;5046905;28;20438;-44
2022/03/27 11:25:24;;;;;;;14.37;10.07;;;27.00;24.20;;;;;;5049451;28;20447;-45
2022/03/27 11:27:55;;;;;;;15.00;10.40;;;26.90;23.90;;;;;;5047679;28;21036;-44
2022/03/27 11:30:20;;;;;;;10.03;8.90;;;27.10;23.80;;;;;;5048946;28;20455;-45
2022/03/27 11:33:26;;;;;;;15.30;9.83;;;27.30;22.80;;;;;;5049604;28;20492;-44
2022/03/27 11:36:04;;;;;;;20.63;9.10;;;26.60;23.20;;;;;;4968206;28;20234;-44
2022/03/27 11:38:54;;;;;;;12.50;10.10;;;26.60;23.00;;;;;;4968094;28;20446;-44
2022/03/27 11:41:28;;;;;;;18.97;10.57;;;26.10;24.00;;;;;;5023370;28;20451;-44
2022/03/27 11:44:19;;;;;;;15.20;10.30;;;26.30;23.70;;;;;;5044888;28;21180;-43
2022/03/27 11:46:52;;;;;;;14.83;9.40;;;26.30;23.20;;;;;;5047395;28;20489;-44
2022/03/27 11:49:19;;;;;;;10.80;9.40;;;26.50;23.60;;;;;;5047148;28;20442;-44
2022/03/27 11:51:45;;;;;;;17.70;10.67;;;26.90;23.50;;;;;;5049297;28;20558;-44
2022/03/27 11:54:19;;;;;;;11.43;9.73;;;26.90;22.50;;;;;;5047778;28;20485;-44
2022/03/27 11:56:55;;;;;;;12.13;9.63;;;26.70;23.00;;;;;;5048313;28;20482;-44
2022/03/27 11:59:22;;;;;;;12.73;9.80;;;27.10;22.30;;;;;;5047985;28;20541;-44
2022/03/27 12:01:53;;;;;;;14.93;9.00;;;27.60;22.10;;;;;;5047792;28;20937;-45
2022/03/27 12:04:19;;;;;;;15.60;8.90;;;27.90;21.10;;;;;;5046275;28;20445;-44
2022/03/27 12:06:45;;;;;;;16.40;10.23;;;28.10;21.40;;;;;;5046196;28;20439;-45
2022/03/27 12:09:25;;;;;;;16.13;9.70;;;28.40;20.90;;;;;;5046979;28;20200;-44
2022/03/27 12:12:08;;;;;;;14.07;9.77;;;28.50;21.50;;;;;;5048691;28;20485;-45
2022/03/27 12:15:00;;;;;;;16.03;9.77;;;28.50;21.70;;;;;;5046169;28;20492;-46
2022/03/27 12:17:32;;;;;;;13.60;10.27;;;28.60;22.40;;;;;;5048523;28;20540;-44
2022/03/27 12:20:06;;;;;;;11.60;9.47;;;28.70;21.20;;;;;;5048585;28;20451;-44
2022/03/27 12:22:31;;;;;;;15.17;9.20;;;28.70;20.00;;;;;;5047874;28;21100;-45
2022/03/27 12:24:57;;;;;;;14.07;9.93;;;28.70;20.20;;;;;;5047641;28;20485;-45
2022/03/27 12:30:10;;;;;;;12.37;9.47;;;28.50;20.20;;;;;;5048809;28;20287;-45
2022/03/27 12:32:36;;;;;;;11.50;9.47;;;28.80;20.20;;;;;;5047144;28;20887;-44
2022/03/27 12:35:02;;;;;;;15.77;8.60;;;29.10;19.90;;;;;;5046406;28;20188;-44
2022/03/27 12:37:30;;;;;;;13.93;8.30;;;29.20;20.00;;;;;;5046959;28;21031;-45
2022/03/27 12:39:56;;;;;;;15.93;10.43;;;29.20;19.10;;;;;;5047312;28;20819;-47
2022/03/27 12:42:49;;;;;;;11.60;9.97;;;29.00;19.70;;;;;;5041942;28;20849;-44